Terminal Aerodrome Forecast
Issued by NWS

Home | Current Version | Previous Version | Text Only | Print | Product List | Glossary On
Versions: 1 2 3 4 5 6 7 8 9 10 11 12 13 14
000
FTUS44 KCRP 130500
TAFLRD
TAF
KLRD 130538Z 1306/1406 13014KT P6SM FEW060
     FM130800 15009KT P6SM SCT015
      TEMPO 1311/1314 BKN015
     FM131500 16011KT P6SM SCT030
     FM131900 13012G18KT P6SM SCT070
     FM140200 13012KT P6SM SCT250=

USA.gov is the U.S. government's official web portal to all federal, state and local government web resources and services.